Humidity-temperature Sensor

Selected Measurement Type: Air Temperature

 
Air Temperature [°C]     6 entries per hour
Showing data from 10/19/2018 (00:00:00 Z) to 10/18/2018 (00:01:00 Z)
Previous Next [ Day | 3-Days | 7-Days ]
First Last
Prev [ Day | 3-Days | 7-Days ] Next
First Last

Start Time:     :
End Time:     :     
Time (in GMT) :00 :50 :40 :30 :20 :10
Previous Next [ Day | 3-Days | 7-Days ]
First Last
Prev [ Day | 3-Days | 7-Days ] Next
First Last


123 => good data
MM => data is determined as missing
-- => data not received/configured
Back to Top Back to Top
10/19/2018 00:00 to 23:10 22.36 22.27 22.21 22.27 22.43 22.26
10/18/2018 23:00 to 22:10 22.30 22.32 22.34 22.48 22.39 22.42
10/18/2018 22:00 to 21:10 22.55 22.37 22.55 22.42 22.50 22.47
10/18/2018 21:00 to 20:10 22.41 22.14 22.40 22.34 22.46 22.32
10/18/2018 20:00 to 19:10 22.18 22.27 22.36 22.42 22.19 22.24
10/18/2018 19:00 to 18:10 22.21 22.23 22.32 22.41 22.34 22.35
10/18/2018 18:00 to 17:10 22.39 22.53 22.38 22.43 22.34 22.44
10/18/2018 17:00 to 16:10 22.31 22.31 22.34 22.32 22.30 22.35
10/18/2018 16:00 to 15:10 22.34 22.38 22.33 22.14 22.08 22.04
10/18/2018 15:00 to 14:10 22.17 22.14 22.24 22.16 22.47 22.43
10/18/2018 14:00 to 13:10 22.10 22.13 21.82 21.75 21.70 21.62
10/18/2018 13:00 to 12:10 21.63 21.55 21.55 21.46 21.49 21.51
10/18/2018 12:00 to 11:10 21.36 21.37 21.32 21.34 21.48 21.41
10/18/2018 11:00 to 10:10 21.37 21.38 21.33 21.25 21.34 21.42
10/18/2018 10:00 to 9:10 21.29 21.41 21.43 21.42 21.32 21.39
10/18/2018 09:00 to 8:10 21.32 21.35 21.37 21.32 21.50 21.44
10/18/2018 08:00 to 7:10 21.49 21.60 21.53 21.58 21.74 21.70
10/18/2018 07:00 to 6:10 21.67 21.65 21.74 21.79 21.70 21.84
10/18/2018 06:00 to 5:10 21.65 21.64 21.91 21.77 21.91 21.97
10/18/2018 05:00 to 4:10 21.89 21.98 22.03 22.12 22.07 22.09
10/18/2018 04:00 to 3:10 22.16 22.19 22.21 22.31 22.45 22.44
10/18/2018 03:00 to 2:10 22.22 22.22 22.31 22.21 22.34 22.24
10/18/2018 02:00 to 1:10 22.20 22.24 22.27 22.45 22.55 22.36
10/18/2018 01:00 to 0:10 22.65 22.51 22.32 22.35 22.49 22.46